Airfield :
LOGIN :

Register | Disclaimer

   EN    FR    IT 

 










Legend :    VFR   Marginal VFR   IFR   Intensive IFR   Very Intensive IFR
Visi :
Ceiling :
>= 8 km
>= 3000ft
5 to 8 km
1000 to 3000 ft
1500m to 5 km
500 to 1000 ft
800 to 1500m
200 to 500 ft
< 800m
< 200 ft
Symbols :   Thunderstorms  Fog  Heavy snow  Heavy precipitations  Wind > 20 kt
SIGMETs :     Misc.  Thunderstorms  Icing  Turbulence  Mountain Waves  Volcanic Ashes






- Airport Elevation : 132 ft


EGXE - RAF Leeming

CURRENT METAR :
  • 040820Z 17008KT 9999 -RA FEW030 BKN080 13/10 Q1013 TEMPO SCT022 RMK BLU TEMPO WHT

EXPIRED METARs :
  • 040750Z 16009KT 9999 -RA FEW040 OVC090 13/10 Q1013 RMK BLU
  • 040650Z AUTO 12006KT 9999 FEW050/// SCT120/// BKN190/// 11/09 Q1014
  • 040550Z AUTO 15005KT 9999 OVC130/// 09/08 Q1015

TAF TAF EGXE
Valid from the 04 at 09:00 until the 04 at 18:00 UTC


040738Z 0409/0418 18010KT 9999 FEW022
PROB30
TEMPO 0409/0412 7000 RA SCT022
TEMPO 0412/0418 21015G26KT



MET'MAP, your aeronautical weather chart ! - Copyright ORBIFLY December 2007 - Disclaimer

ORBIFLY MET'MAP TEAM :

Programming & Development : Alexandra Zaïnal
Concept & original design : Baudouin d'Aumeries
Assistance for programming : Marc-Olivier Méhu
Technical & hardware support : Manuel Goepfert

Contact : metmap@orbifly.com




SOURCES & CREDITS :

   NOAA